CheckWX is a tool to help pilots better visualize weather data.  It is not intended as a substitute for an official pre-flight weather briefing.

21:57:49 UTC

KJMS TAF
Jamestown Regional Airport
Jamestown, North Dakota, USA
KJMS 311729Z 3118/0118 15018G26KT P6SM BKN070 FM010500 13012G19KT P6SM VCSH BKN040 FM010800 13011G19KT P6SM BKN060 FM011600 16013G22KT P6SM BKN010

Mar-31@
18:00 UTC

Mar-31 @ 18:00 UTC

Apr-1@
05:00 UTC

Apr-1 @ 05:00 UTC

TAF KJMS 311729Z 3118/0118 15018G26KT P6SM BKN070
Wind
  • 150° at 18 KTS
  • {Gusting to 26 KTS
Cloud Levels
  • Broken at 7,000' AGL

Apr-1@
05:00 UTC

Apr-1 @ 05:00 UTC

Apr-1@
08:00 UTC

Apr-1 @ 08:00 UTC

FM010500 13012G19KT P6SM VCSH BKN040

From

From Standard forecast or significant change

Wind
  • 130° at 12 KTS
  • {Gusting to 19 KTS
Conditions
Area Showers
Cloud Levels
  • Broken at 4,000' AGL

Apr-1@
08:00 UTC

Apr-1 @ 08:00 UTC

Apr-1@
16:00 UTC

Apr-1 @ 16:00 UTC

FM010800 13011G19KT P6SM BKN060

From

From Standard forecast or significant change

Wind
  • 130° at 11 KTS
  • {Gusting to 19 KTS
Cloud Levels
  • Broken at 6,000' AGL

Apr-1@
16:00 UTC

Apr-1 @ 16:00 UTC

Apr-1@
18:00 UTC

Apr-1 @ 18:00 UTC

FM011600 16013G22KT P6SM BKN010

From

From Standard forecast or significant change

Wind
  • 160° at 13 KTS
  • {Gusting to 22 KTS
Cloud Levels
  • Broken at 1,000' AGL